LROP Airport Information

Runway Information
Runway 08L Length 11484 ft width 148 ft
Elevation 313 ft Threshold 0 ft Heading 84
Runway 26R Length 11484 ft Width 148 ft
Elevation 303 ft Threshold 0 ft Heading 264
Runway 08R Length 11484 ft width 148 ft
Elevation 314 ft Threshold 0 ft Heading 84
Runway 26L Length 11484 ft Width 148 ft
Elevation 303 ft Threshold 0 ft Heading 264
Airport Frequencies
Type APP Name BUCURESTI Frequency 118.25 MHZ
Type ATIS Name OTOPENI AT Frequency 118.5 MHZ
Type GND Name OTOPENI GN Frequency 121.7 MHZ
Type TWR Name OTOPENI TW Frequency 120.9 MHZ
Airport Navaids
Type VOR-DME Name Floresti Frequency 112200 KHZ
Type NDB Name Otopeni Frequency 349 KHZ
Type NDB Name Otopeni Frequency 268 KHZ
Type NDB Name Otopeni Frequency 370 KHZ
Type VOR-DME Name Strejnic Frequency 113200 KHZ
Airport Weather Information & NOTAM
ADDS - METARS form results

(1705 UTC 17 July 2019)
Data provider http://aviationweather.gov/metar/data/
 
METAR text: LROP 171700Z 25006KT CAVOK 26/13 Q1008 NOSIG
Conditions at: LROP (BUCHAREST/OTOPEN, RO) observed 1700 UTC 17 July 2019
Temperature: 26.0°C (79°F)
Dewpoint: 13.0°C (55°F) [RH = 45%]
Pressure (altimeter): 29.76 inches Hg (1008.0 mb)
Winds: from the WSW (250 degrees) at 7 MPH (6 knots; 3.1 m/s)
Visibility: 6 or more miles (10+ km)
Ceiling: ceiling and visibility are OK
Clouds: unknown
Weather: no significant weather observed at this time

METAR text: LROP 171630Z 25007KT CAVOK 27/11 Q1008 NOSIG
Conditions at: LROP (BUCHAREST/OTOPEN, RO) observed 1630 UTC 17 July 2019
Temperature: 27.0°C (81°F)
Dewpoint: 11.0°C (52°F) [RH = 37%]
Pressure (altimeter): 29.76 inches Hg (1008.0 mb)
Winds: from the WSW (250 degrees) at 8 MPH (7 knots; 3.6 m/s)
Visibility: 6 or more miles (10+ km)
Ceiling: ceiling and visibility are OK
Clouds: unknown
Weather: no significant weather observed at this time

Forecast for: LROP (BUCHAREST/OTOPEN, RO)
Text: TAF LROP 171100Z 1712/1812 VRB04KT CAVOK
Forecast period: 1200 UTC 17 July 2019 to 0300 UTC 18 July 2019
Forecast type: FROM: standard forecast or significant change
Winds: variable direction winds at 5 MPH (4 knots; 2.1 m/s)
Visibility: 6 or more miles 10+ km)
Ceiling: unknown
Clouds: missing
Weather: NSW  (no significant weather)
Text: TEMPO 1712/1716 28010KT
Forecast period: 1200 to 1600 UTC 17 July 2019
Forecast type: TEMPORARY: The following changes expected for less than half the time period
Winds: from the W (280 degrees) at 12 MPH (10 knots; 5.1 m/s)
Visibility: missing
Ceiling: unknown
Clouds: missing
Weather: no significant weather forecast for this period
Text: BECMG 1803/1805 07010KT
Forecast period: 0300 to 1200 UTC 18 July 2019
Forecast type: BECOMING: Conditions expected to become as follows by 0500 UTC 18 July 2019
Winds: from the ENE (70 degrees) at 12 MPH (10 knots; 5.1 m/s)
Visibility: 6 or more miles 10+ km)
Ceiling: unknown
Clouds: missing
Weather: NSW  (no significant weather)